Umm Slal — V7PW3 — position and weather

sailwx.info

Track history (hours):
 
Tides and Currents Weather Stations Pressure Air Temp Water Temp Dewpoint Dewpoint Depression Visibility Wind Speed Wind Dir Waves Ship Positions

Umm Slal

Last reported at 2018-Jun-03 07:55 UTC. Time now 2018-Jun-18 23:18 UTC.
Position N 01°37' E 102°54'.
Warning: this ship's position is 15 days out of date.

Length 345 m; draft 9.4 m.

Type: Ship (hazmat cat D). MMSI: 538003300.

Date/timePositionNaut miles runAvg speedWind from/ knotsBaromVisibWave heightAir tempDewpointWater temp
2018-Jun-03 07:55N 01°37' E 102°54'2014.9
2018-Jun-03 06:35N 01°26' E 103°10'214.2
2018-Jun-03 06:28N 01°25' E 103°11'714.0
2018-Jun-03 05:59N 01°20' E 103°16'713.1
2018-Jun-03 05:27N 01°16' E 103°22'614.0
2018-Jun-03 05:01N 01°14' E 103°28'714.2
2018-Jun-03 04:30N 01°12' E 103°35'510.2
2018-Jun-03 04:00N 01°11' E 103°40'3 5.1
2018-Jun-03 03:30N 01°11' E 103°42'0 0.5
2018-Jun-03 02:59N 01°11' E 103°42'0 0.0
2018-Jun-03 02:27N 01°11' E 103°42'0 0.0
2018-Jun-03 01:59N 01°11' E 103°42'0 0.0
2018-Jun-03 01:30N 01°11' E 103°42'0 0.1
2018-Jun-03 00:57N 01°11' E 103°42'0 0.0
2018-Jun-03 00:25N 01°11' E 103°42'0 0.0
2018-Jun-02 23:58N 01°11' E 103°42'0 0.0
2018-Jun-02 23:27N 01°11' E 103°42'0 0.0
2018-Jun-02 22:55N 01°11' E 103°42'0 0.0
2018-Jun-02 22:13N 01°11' E 103°42'0 0.0
2018-Jun-02 21:59N 01°11' E 103°42'0 0.0
2018-Jun-02 21:28N 01°11' E 103°42'0 0.1
2018-Jun-02 20:58N 01°11' E 103°42'0 0.0
2018-Jun-02 20:28N 01°11' E 103°42'0 0.0
2018-Jun-02 19:59N 01°11' E 103°42'0 0.0
2018-Jun-02 19:27N 01°11' E 103°42'0 0.1
2018-Jun-02 18:59N 01°11' E 103°42'0 0.1
2018-Jun-02 18:30N 01°11' E 103°42'0 0.0
2018-Jun-02 17:58N 01°11' E 103°42'0 0.0
2018-Jun-02 17:30N 01°11' E 103°42'0 0.0
2018-Jun-02 16:58N 01°11' E 103°42'0 0.1
2018-Jun-02 16:31N 01°11' E 103°42'0 0.0
2018-Jun-02 15:59N 01°11' E 103°42'0 0.0
2018-Jun-02 15:29N 01°11' E 103°42'0 0.1
2018-Jun-02 14:59N 01°11' E 103°42'0 0.0
2018-Jun-02 14:30N 01°11' E 103°42'0 0.1
2018-Jun-02 13:54N 01°11' E 103°42'0 0.2
2018-Jun-02 13:30N 01°11' E 103°42'0 0.1
2018-Jun-02 13:01N 01°11' E 103°42'0 0.1
2018-Jun-02 12:25N 01°11' E 103°42'0 0.0
2018-Jun-02 11:58N 01°11' E 103°42'0 0.0
2018-Jun-02 11:27N 01°11' E 103°42'0 0.0
2018-Jun-02 10:58N 01°11' E 103°42'0 0.4
2018-Jun-02 10:28N 01°11' E 103°42'0 0.3
2018-Jun-02 09:59N 01°11' E 103°42'0 0.0
2018-Jun-02 09:29N 01°11' E 103°42'0 0.0
2018-Jun-02 08:59N 01°11' E 103°42'0 0.0
2018-Jun-02 08:30N 01°11' E 103°42'0 0.0
2018-Jun-02 08:00N 01°11' E 103°42'0 0.0
2018-Jun-02 07:28N 01°11' E 103°42'0 0.0
2018-Jun-02 06:59N 01°11' E 103°42'0 0.0
2018-Jun-02 06:26N 01°11' E 103°42'0 0.0
2018-Jun-02 05:59N 01°11' E 103°42'0 0.0
2018-Jun-02 05:29N 01°11' E 103°42'0 0.1
2018-Jun-02 04:53N 01°11' E 103°42'0 0.1
2018-Jun-02 04:27N 01°11' E 103°42'0 0.0
2018-Jun-02 03:57N 01°11' E 103°42'0 0.1
2018-Jun-02 03:30N 01°11' E 103°42'0 0.1
2018-Jun-02 03:00N 01°11' E 103°42'0 0.0
2018-Jun-02 02:30N 01°11' E 103°42'0 0.0
2018-Jun-02 02:00N 01°11' E 103°42'0 0.1
2018-Jun-02 01:30N 01°11' E 103°42'0 0.0
2018-Jun-02 00:59N 01°11' E 103°42'0 0.0
2018-Jun-02 00:29N 01°11' E 103°42'0 0.0
2018-Jun-01 23:59N 01°11' E 103°42'0 0.1
2018-Jun-01 23:29N 01°11' E 103°42'0 0.0
2018-Jun-01 22:51N 01°11' E 103°42'0 0.1
2018-Jun-01 22:29N 01°11' E 103°42'0 0.9
2018-Jun-01 22:00N 01°10' E 103°42'1 2.6
2018-Jun-01 21:30N 01°09' E 103°43'1 2.6
2018-Jun-01 21:00N 01°10' E 103°42'2 3.8
2018-Jun-01 20:30N 01°09' E 103°44'3 6.7
2018-Jun-01 20:00N 01°10' E 103°47'3 6.6
2018-Jun-01 19:30N 01°11' E 103°50'4 8.7
2018-Jun-01 19:00N 01°13' E 103°54'5 9.1
2018-Jun-01 18:31N 01°15' E 103°58'4 8.8
2018-Jun-01 18:00N 01°16' E 104°02'5 9.6
2018-Jun-01 17:30N 01°17' E 104°07'610.9
2018-Jun-01 17:00N 01°17' E 104°13'712.1
2018-Jun-01 16:26N 01°19' E 104°19'712.2
2018-Jun-01 15:54N 01°23' E 104°25'1313.0
2018-Jun-01 14:53N 01°31' E 104°35'  
2018-May-24 13:51N 32°02' E 124°14'515.1
2018-May-24 13:30N 31°57' E 124°16'  
Track history (hours):
 
Tides and Currents Weather Stations Pressure Air Temp Water Temp Dewpoint Dewpoint Depression Visibility Wind Speed Wind Dir Waves Ship Positions

Umm Slal

Last reported at 2018-Jun-03 07:55 UTC. Time now 2018-Jun-18 23:18 UTC.
Position N 01°37' E 102°54'.
Warning: this ship's position is 15 days out of date.

Length 345 m; draft 9.4 m.

Type: Ship (hazmat cat D). MMSI: 538003300.

Date/timePositionNaut miles runAvg speedWind from/ knotsBaromVisibWave heightAir tempDewpointWater temp
2018-Jun-03 07:55N 01°37' E 102°54'2014.9
2018-Jun-03 06:35N 01°26' E 103°10'214.2
2018-Jun-03 06:28N 01°25' E 103°11'714.0
2018-Jun-03 05:59N 01°20' E 103°16'713.1
2018-Jun-03 05:27N 01°16' E 103°22'614.0
2018-Jun-03 05:01N 01°14' E 103°28'714.2
2018-Jun-03 04:30N 01°12' E 103°35'510.2
2018-Jun-03 04:00N 01°11' E 103°40'3 5.1
2018-Jun-03 03:30N 01°11' E 103°42'0 0.5
2018-Jun-03 02:59N 01°11' E 103°42'0 0.0
2018-Jun-03 02:27N 01°11' E 103°42'0 0.0
2018-Jun-03 01:59N 01°11' E 103°42'0 0.0
2018-Jun-03 01:30N 01°11' E 103°42'0 0.1
2018-Jun-03 00:57N 01°11' E 103°42'0 0.0
2018-Jun-03 00:25N 01°11' E 103°42'0 0.0
2018-Jun-02 23:58N 01°11' E 103°42'0 0.0
2018-Jun-02 23:27N 01°11' E 103°42'0 0.0
2018-Jun-02 22:55N 01°11' E 103°42'0 0.0
2018-Jun-02 22:13N 01°11' E 103°42'0 0.0
2018-Jun-02 21:59N 01°11' E 103°42'0 0.0
2018-Jun-02 21:28N 01°11' E 103°42'0 0.1
2018-Jun-02 20:58N 01°11' E 103°42'0 0.0
2018-Jun-02 20:28N 01°11' E 103°42'0 0.0
2018-Jun-02 19:59N 01°11' E 103°42'0 0.0
2018-Jun-02 19:27N 01°11' E 103°42'0 0.1
2018-Jun-02 18:59N 01°11' E 103°42'0 0.1
2018-Jun-02 18:30N 01°11' E 103°42'0 0.0
2018-Jun-02 17:58N 01°11' E 103°42'0 0.0
2018-Jun-02 17:30N 01°11' E 103°42'0 0.0
2018-Jun-02 16:58N 01°11' E 103°42'0 0.1
2018-Jun-02 16:31N 01°11' E 103°42'0 0.0
2018-Jun-02 15:59N 01°11' E 103°42'0 0.0
2018-Jun-02 15:29N 01°11' E 103°42'0 0.1
2018-Jun-02 14:59N 01°11' E 103°42'0 0.0
2018-Jun-02 14:30N 01°11' E 103°42'0 0.1
2018-Jun-02 13:54N 01°11' E 103°42'0 0.2
2018-Jun-02 13:30N 01°11' E 103°42'0 0.1
2018-Jun-02 13:01N 01°11' E 103°42'0 0.1
2018-Jun-02 12:25N 01°11' E 103°42'0 0.0
2018-Jun-02 11:58N 01°11' E 103°42'0 0.0
2018-Jun-02 11:27N 01°11' E 103°42'0 0.0
2018-Jun-02 10:58N 01°11' E 103°42'0 0.4
2018-Jun-02 10:28N 01°11' E 103°42'0 0.3
2018-Jun-02 09:59N 01°11' E 103°42'0 0.0
2018-Jun-02 09:29N 01°11' E 103°42'0 0.0
2018-Jun-02 08:59N 01°11' E 103°42'0 0.0
2018-Jun-02 08:30N 01°11' E 103°42'0 0.0
2018-Jun-02 08:00N 01°11' E 103°42'0 0.0
2018-Jun-02 07:28N 01°11' E 103°42'0 0.0
2018-Jun-02 06:59N 01°11' E 103°42'0 0.0
2018-Jun-02 06:26N 01°11' E 103°42'0 0.0
2018-Jun-02 05:59N 01°11' E 103°42'0 0.0
2018-Jun-02 05:29N 01°11' E 103°42'0 0.1
2018-Jun-02 04:53N 01°11' E 103°42'0 0.1
2018-Jun-02 04:27N 01°11' E 103°42'0 0.0
2018-Jun-02 03:57N 01°11' E 103°42'0 0.1
2018-Jun-02 03:30N 01°11' E 103°42'0 0.1
2018-Jun-02 03:00N 01°11' E 103°42'0 0.0
2018-Jun-02 02:30N 01°11' E 103°42'0 0.0
2018-Jun-02 02:00N 01°11' E 103°42'0 0.1
2018-Jun-02 01:30N 01°11' E 103°42'0 0.0
2018-Jun-02 00:59N 01°11' E 103°42'0 0.0
2018-Jun-02 00:29N 01°11' E 103°42'0 0.0
2018-Jun-01 23:59N 01°11' E 103°42'0 0.1
2018-Jun-01 23:29N 01°11' E 103°42'0 0.0
2018-Jun-01 22:51N 01°11' E 103°42'0 0.1
2018-Jun-01 22:29N 01°11' E 103°42'0 0.9
2018-Jun-01 22:00N 01°10' E 103°42'1 2.6
2018-Jun-01 21:30N 01°09' E 103°43'1 2.6
2018-Jun-01 21:00N 01°10' E 103°42'2 3.8
2018-Jun-01 20:30N 01°09' E 103°44'3 6.7
2018-Jun-01 20:00N 01°10' E 103°47'3 6.6
2018-Jun-01 19:30N 01°11' E 103°50'4 8.7
2018-Jun-01 19:00N 01°13' E 103°54'5 9.1
2018-Jun-01 18:31N 01°15' E 103°58'4 8.8
2018-Jun-01 18:00N 01°16' E 104°02'5 9.6
2018-Jun-01 17:30N 01°17' E 104°07'610.9
2018-Jun-01 17:00N 01°17' E 104°13'712.1
2018-Jun-01 16:26N 01°19' E 104°19'712.2
2018-Jun-01 15:54N 01°23' E 104°25'1313.0
2018-Jun-01 14:53N 01°31' E 104°35'  
2018-May-24 13:51N 32°02' E 124°14'515.1
2018-May-24 13:30N 31°57' E 124°16'  

Dump ship's entire track history